createdAt,value
2023-01-10T00:01:31.260Z,6.60
2023-01-10T00:03:59.268Z,6.00
2023-01-10T00:06:27.152Z,5.70
2023-01-10T00:08:55.021Z,5.70
2023-01-10T00:11:41.991Z,5.70
2023-01-10T00:14:11.337Z,6.00
2023-01-10T00:16:39.514Z,6.20
2023-01-10T00:19:08.355Z,5.90
2023-01-10T00:21:36.250Z,6.60
2023-01-10T00:24:17.699Z,6.20
2023-01-10T00:26:51.138Z,5.80
2023-01-10T00:29:19.731Z,6.00
2023-01-10T00:31:47.621Z,6.00
2023-01-10T00:34:15.925Z,6.20
2023-01-10T00:36:45.539Z,6.30
2023-01-10T00:39:13.978Z,5.70
2023-01-10T00:42:00.452Z,6.70
2023-01-10T00:44:29.713Z,6.30
2023-01-10T00:46:57.916Z,6.20
2023-01-10T00:49:25.766Z,6.50
2023-01-10T00:51:58.024Z,5.70
2023-01-10T00:54:26.035Z,5.80
2023-01-10T00:56:53.956Z,6.70
2023-01-10T00:59:22.195Z,7.80
2023-01-10T01:01:51.786Z,5.70
2023-01-10T01:04:19.886Z,6.20
2023-01-10T01:06:48.965Z,5.60
2023-01-10T01:09:17.123Z,5.60
2023-01-10T01:11:45.033Z,6.10
2023-01-10T01:14:13.016Z,5.60
2023-01-10T01:16:40.880Z,6.20
2023-01-10T01:19:11.111Z,5.90
2023-01-10T01:21:38.958Z,6.40
2023-01-10T01:24:07.247Z,6.30
2023-01-10T01:26:35.799Z,5.50
2023-01-10T01:29:03.714Z,5.40
2023-01-10T01:31:31.725Z,6.30
2023-01-10T01:33:59.663Z,6.60
2023-01-10T01:36:28.920Z,5.40
2023-01-10T01:38:56.815Z,5.60
2023-01-10T01:41:42.080Z,7.40
2023-01-10T01:44:16.408Z,6.30
2023-01-10T01:46:47.493Z,6.30
2023-01-10T01:49:19.065Z,5.90
2023-01-10T01:51:50.048Z,6.60
2023-01-10T01:54:19.486Z,6.00
2023-01-10T01:56:52.083Z,6.50
2023-01-10T01:59:24.560Z,6.00
2023-01-10T02:01:56.828Z,6.40
2023-01-10T02:04:29.415Z,6.20
2023-01-10T02:07:00.308Z,6.50
2023-01-10T02:09:34.238Z,6.50
2023-01-10T02:12:03.147Z,6.50
2023-01-10T02:14:32.984Z,6.40
2023-01-10T02:17:00.852Z,6.50
2023-01-10T02:19:43.215Z,5.80
2023-01-10T02:22:49.108Z,5.20
2023-01-10T02:25:48.276Z,5.50
2023-01-10T02:28:51.666Z,5.50
2023-01-10T02:31:59.045Z,5.70
2023-01-10T02:34:34.895Z,5.50
2023-01-10T02:37:12.337Z,5.30
2023-01-10T02:39:48.396Z,5.60
2023-01-10T02:42:24.816Z,6.30
2023-01-10T02:44:57.646Z,6.60
2023-01-10T02:47:25.602Z,5.80
2023-01-10T02:49:54.847Z,5.50
2023-01-10T02:52:26.360Z,6.00
2023-01-10T02:54:59.476Z,5.80
2023-01-10T02:57:43.060Z,5.30
2023-01-10T03:00:38.453Z,5.50
2023-01-10T03:03:33.211Z,5.20
2023-01-10T03:06:13.612Z,4.90
2023-01-10T03:08:45.116Z,5.20
2023-01-10T03:11:13.550Z,6.70
2023-01-10T03:13:47.853Z,6.50
2023-01-10T03:16:20.237Z,6.10
2023-01-10T03:18:52.880Z,4.80
2023-01-10T03:21:25.596Z,5.90
2023-01-10T03:23:59.279Z,6.40
2023-01-10T03:26:33.841Z,6.50
2023-01-10T03:29:07.374Z,6.30
2023-01-10T03:31:41.249Z,6.20
2023-01-10T03:34:10.337Z,6.50
2023-01-10T03:36:46.100Z,5.30
2023-01-10T03:39:20.025Z,6.60
2023-01-10T03:41:54.801Z,5.10
2023-01-10T03:44:45.191Z,6.10
2023-01-10T03:47:24.229Z,6.40
2023-01-10T03:49:56.731Z,5.30
2023-01-10T03:52:27.085Z,6.10
2023-01-10T03:54:54.976Z,6.20
2023-01-10T03:57:24.779Z,6.10
2023-01-10T03:59:54.707Z,5.10
2023-01-10T04:02:22.663Z,5.10
2023-01-10T04:04:50.567Z,4.70
2023-01-10T04:07:18.435Z,5.00
2023-01-10T04:09:47.665Z,5.80
2023-01-10T04:12:15.719Z,5.50
2023-01-10T04:14:45.422Z,6.20
2023-01-10T04:17:13.336Z,6.00
2023-01-10T04:19:41.845Z,5.90
2023-01-10T04:22:09.767Z,5.30
2023-01-10T04:24:37.947Z,6.20
2023-01-10T04:27:07.727Z,6.70
2023-01-10T04:29:35.587Z,5.90
2023-01-10T04:32:03.480Z,6.30
2023-01-10T04:34:31.337Z,4.70
2023-01-10T04:36:59.238Z,5.90
2023-01-10T04:39:27.069Z,4.50
2023-01-10T04:41:54.924Z,5.30
2023-01-10T04:44:24.135Z,4.20
2023-01-10T04:46:51.996Z,4.40
2023-01-10T04:49:19.875Z,4.30
2023-01-10T04:51:47.720Z,4.30
2023-01-10T04:54:15.651Z,4.10
2023-01-10T04:56:43.515Z,5.40
2023-01-10T04:59:11.605Z,6.10
2023-01-10T05:01:40.899Z,5.20
2023-01-10T05:04:08.792Z,4.00
2023-01-10T05:06:37.074Z,4.00
2023-01-10T05:09:05.094Z,5.00
2023-01-10T05:11:32.965Z,5.40
2023-01-10T05:14:00.955Z,6.40
2023-01-10T05:16:29.222Z,3.90
2023-01-10T05:18:58.443Z,3.80
2023-01-10T05:21:26.360Z,3.90
2023-01-10T05:23:54.242Z,3.80
2023-01-10T05:26:23.985Z,3.70
2023-01-10T05:28:52.240Z,3.60
2023-01-10T05:31:21.049Z,3.90
2023-01-10T05:33:50.478Z,3.50
2023-01-10T05:36:20.366Z,4.50
2023-01-10T05:38:48.494Z,3.80
2023-01-10T05:41:16.429Z,3.70
2023-01-10T05:43:44.448Z,3.50
2023-01-10T05:46:12.560Z,3.60
2023-01-10T05:48:40.453Z,3.60
2023-01-10T05:51:09.017Z,5.10
2023-01-10T05:53:38.336Z,3.60
2023-01-10T05:56:07.674Z,3.70
2023-01-10T05:58:35.769Z,3.80
2023-01-10T06:01:03.703Z,3.60
2023-01-10T06:03:31.593Z,5.20
2023-01-10T06:05:59.476Z,3.80
2023-01-10T06:08:27.324Z,3.70
2023-01-10T06:10:56.844Z,3.60
2023-01-10T06:13:25.282Z,3.80
2023-01-10T06:15:53.263Z,3.60
2023-01-10T06:18:21.441Z,5.60
2023-01-10T06:20:49.354Z,5.60
2023-01-10T06:23:17.479Z,5.60
2023-01-10T06:25:45.842Z,4.80
2023-01-10T06:28:15.620Z,5.00
2023-01-10T06:30:44.253Z,4.70
2023-01-10T06:33:13.010Z,5.50
2023-01-10T06:35:40.984Z,4.10
2023-01-10T06:38:09.145Z,4.60
2023-01-10T06:40:37.017Z,4.30
2023-01-10T06:43:04.943Z,5.30
2023-01-10T06:45:34.425Z,5.00
2023-01-10T06:48:02.404Z,4.00
2023-01-10T06:50:31.686Z,4.30
2023-01-10T06:53:00.241Z,6.20
2023-01-10T06:55:28.932Z,5.40
2023-01-10T06:57:57.831Z,4.70
2023-01-10T07:00:27.341Z,5.40
2023-01-10T07:02:58.688Z,5.40
2023-01-10T07:05:26.878Z,6.10
2023-01-10T07:07:54.888Z,4.80
2023-01-10T07:10:22.903Z,6.30
2023-01-10T07:12:50.809Z,5.50
2023-01-10T07:15:18.784Z,5.80
2023-01-10T07:17:46.673Z,4.60
2023-01-10T07:20:16.201Z,6.10
2023-01-10T07:22:44.106Z,4.60
2023-01-10T07:25:12.054Z,4.90
2023-01-10T07:27:43.293Z,5.60
2023-01-10T07:30:12.324Z,4.70
2023-01-10T07:32:40.248Z,4.70
2023-01-10T07:35:08.707Z,4.80
2023-01-10T07:37:38.108Z,4.60
2023-01-10T07:40:07.260Z,4.40
2023-01-10T07:42:35.139Z,4.50
2023-01-10T07:45:03.033Z,4.30
2023-01-10T07:47:31.037Z,5.20
2023-01-10T07:49:58.902Z,4.30
2023-01-10T07:52:26.847Z,4.20
2023-01-10T07:54:56.090Z,5.50
2023-01-10T07:57:24.005Z,4.30
2023-01-10T07:59:51.960Z,4.30
2023-01-10T08:02:19.925Z,5.10
2023-01-10T08:04:47.851Z,4.30
2023-01-10T08:07:15.745Z,4.60
2023-01-10T08:09:43.606Z,5.50
2023-01-10T08:12:12.824Z,5.50
2023-01-10T08:14:40.782Z,4.40
2023-01-10T08:17:10.032Z,4.70
2023-01-10T08:19:37.939Z,4.70
2023-01-10T08:22:05.831Z,4.50
2023-01-10T08:24:33.766Z,4.80
2023-01-10T08:27:02.237Z,4.60
2023-01-10T08:29:31.493Z,5.00
2023-01-10T08:31:59.380Z,6.10
2023-01-10T08:34:27.839Z,5.30
2023-01-10T08:36:56.300Z,5.00
2023-01-10T08:39:26.445Z,5.00
2023-01-10T08:41:54.648Z,5.80
2023-01-10T08:44:22.522Z,5.10
2023-01-10T08:46:51.860Z,6.00
2023-01-10T08:49:19.759Z,5.90
2023-01-10T08:51:47.626Z,5.10
2023-01-10T08:54:15.682Z,4.90
2023-01-10T08:56:43.613Z,5.10
2023-01-10T08:59:11.469Z,5.00
2023-01-10T09:01:39.516Z,5.20
2023-01-10T09:04:08.861Z,5.60
2023-01-10T09:06:37.350Z,6.30
2023-01-10T09:09:05.924Z,5.30
2023-01-10T09:11:33.815Z,6.30
2023-01-10T09:14:01.776Z,5.50
2023-01-10T09:16:29.648Z,5.60
2023-01-10T09:18:58.265Z,6.40
2023-01-10T09:21:28.596Z,5.70
2023-01-10T09:23:56.538Z,5.70
2023-01-10T09:26:24.483Z,5.80
2023-01-10T09:28:52.378Z,5.80
2023-01-10T09:31:20.316Z,5.90
2023-01-10T09:33:49.750Z,5.70
2023-01-10T09:36:17.650Z,6.40
2023-01-10T09:38:46.978Z,6.00
2023-01-10T09:41:40.682Z,6.20
2023-01-10T09:44:20.054Z,6.00
2023-01-10T09:47:17.561Z,6.10
2023-01-10T09:50:00.407Z,6.20
2023-01-10T09:52:32.291Z,6.00
2023-01-10T09:55:11.195Z,6.10
2023-01-10T09:57:39.111Z,6.40
2023-01-10T10:00:09.534Z,6.30
2023-01-10T10:02:42.677Z,6.20
2023-01-10T10:05:14.424Z,6.60
2023-01-10T10:07:42.432Z,6.20
2023-01-10T10:10:19.412Z,6.20
2023-01-10T10:12:56.305Z,6.20
2023-01-10T10:15:31.496Z,6.30
2023-01-10T10:18:11.435Z,6.40
2023-01-10T10:20:50.286Z,6.70
2023-01-10T10:23:47.002Z,6.50
2023-01-10T10:26:24.207Z,6.90
2023-01-10T10:29:18.798Z,7.00
2023-01-10T10:32:12.873Z,7.00
2023-01-10T10:34:46.640Z,7.00
2023-01-10T10:37:20.910Z,6.90
2023-01-10T10:39:52.260Z,6.90
2023-01-10T10:42:21.961Z,6.90
2023-01-10T10:44:55.416Z,6.80
2023-01-10T10:47:24.736Z,6.80
2023-01-10T10:49:57.473Z,6.80
2023-01-10T10:52:27.385Z,6.80
2023-01-10T10:54:55.736Z,6.80
2023-01-10T10:57:28.477Z,6.80
2023-01-10T10:59:57.471Z,6.80
2023-01-10T11:02:28.907Z,6.80
2023-01-10T11:05:00.656Z,6.80
2023-01-10T11:07:33.420Z,6.90
2023-01-10T11:10:31.941Z,6.90
2023-01-10T11:13:03.167Z,6.90
2023-01-10T11:15:40.544Z,7.30
2023-01-10T11:18:14.256Z,7.00
2023-01-10T11:20:57.681Z,7.00
2023-01-10T11:23:45.455Z,7.10
2023-01-10T11:26:26.131Z,7.20
2023-01-10T11:29:08.021Z,7.20
2023-01-10T11:31:37.434Z,7.20
2023-01-10T11:34:09.471Z,7.10
2023-01-10T11:36:56.056Z,7.10
2023-01-10T11:39:24.037Z,7.00
2023-01-10T11:41:53.250Z,7.10
2023-01-10T11:44:27.719Z,7.10
2023-01-10T11:46:57.452Z,7.10
2023-01-10T11:49:31.877Z,7.10
2023-01-10T11:52:04.427Z,7.10
2023-01-10T11:54:33.615Z,7.10
2023-01-10T11:57:03.714Z,7.10
2023-01-10T11:59:33.886Z,7.10
2023-01-10T12:02:05.361Z,7.00
2023-01-10T12:04:40.601Z,7.00
2023-01-10T12:07:11.882Z,7.10
2023-01-10T12:09:42.340Z,7.00
2023-01-10T12:12:21.899Z,7.00
2023-01-10T12:14:52.470Z,7.00
2023-01-10T12:17:25.909Z,7.00
2023-01-10T12:19:55.665Z,7.00
2023-01-10T12:22:28.358Z,7.00
2023-01-10T12:24:57.705Z,7.00
2023-01-10T12:27:27.394Z,7.00
2023-01-10T12:30:12.515Z,7.10
2023-01-10T12:32:47.475Z,7.10
2023-01-10T12:35:20.580Z,7.20
2023-01-10T12:37:52.882Z,7.20
2023-01-10T12:40:27.083Z,7.20
2023-01-10T12:43:17.293Z,7.20
2023-01-10T12:45:52.194Z,7.10
2023-01-10T12:48:26.224Z,7.30
2023-01-10T12:50:58.776Z,7.90
2023-01-10T12:53:32.863Z,7.40
2023-01-10T12:59:49.768Z,7.40
2023-01-10T13:02:21.723Z,7.90
2023-01-10T13:04:54.233Z,6.80
2023-01-10T13:08:01.719Z,6.80
2023-01-10T13:10:30.909Z,7.40
2023-01-10T13:13:02.991Z,7.30
2023-01-10T13:15:34.248Z,7.40
2023-01-10T13:18:07.204Z,7.20
2023-01-10T13:20:42.831Z,7.40
2023-01-10T13:23:30.385Z,7.40
2023-01-10T13:26:01.782Z,7.40
2023-01-10T13:28:31.707Z,7.40
2023-01-10T13:31:01.927Z,7.30
2023-01-10T13:33:33.512Z,7.30
2023-01-10T13:36:11.428Z,6.80
2023-01-10T13:38:48.855Z,7.40
2023-01-10T13:41:34.897Z,7.40
2023-01-10T13:44:09.666Z,7.30
2023-01-10T13:46:43.203Z,7.30
2023-01-10T13:49:47.858Z,7.30
2023-01-10T13:52:33.457Z,7.30
2023-01-10T13:55:04.312Z,7.20
2023-01-10T13:57:55.024Z,7.30
2023-01-10T14:01:14.773Z,7.20
2023-01-10T14:04:00.514Z,7.20
2023-01-10T14:06:41.832Z,7.10
2023-01-10T14:09:31.295Z,7.10
2023-01-10T14:12:02.799Z,7.10
2023-01-10T14:14:33.918Z,7.10
2023-01-10T14:17:14.395Z,7.00
2023-01-10T14:19:44.920Z,7.00
2023-01-10T14:22:27.814Z,7.10
2023-01-10T14:24:55.852Z,7.00
2023-01-10T14:27:24.368Z,6.80
2023-01-10T14:29:57.001Z,6.90
2023-01-10T14:32:34.394Z,6.90
2023-01-10T14:35:04.659Z,6.90
2023-01-10T14:37:39.764Z,6.80
2023-01-10T14:40:18.411Z,6.70
2023-01-10T14:42:48.752Z,6.80
2023-01-10T14:45:28.193Z,6.70
2023-01-10T14:47:56.086Z,6.80
2023-01-10T14:50:30.178Z,6.70
2023-01-10T14:52:59.814Z,6.70
2023-01-10T14:55:28.039Z,6.70
2023-01-10T14:57:57.129Z,6.60
2023-01-10T15:00:30.200Z,6.70
2023-01-10T15:03:01.666Z,6.60
2023-01-10T15:05:31.008Z,7.30
2023-01-10T15:08:20.856Z,6.60
2023-01-10T15:10:51.856Z,6.60
2023-01-10T15:13:23.725Z,7.00
2023-01-10T15:15:52.598Z,6.10
2023-01-10T15:18:31.551Z,6.50
2023-01-10T15:21:00.250Z,6.40
2023-01-10T15:23:35.915Z,6.40
2023-01-10T15:26:06.747Z,6.40
2023-01-10T15:28:35.952Z,6.40
2023-01-10T15:31:06.167Z,6.90
2023-01-10T15:33:36.431Z,6.10
2023-01-10T15:36:05.225Z,6.50
2023-01-10T15:38:38.955Z,6.40
2023-01-10T15:41:08.311Z,6.30
2023-01-10T15:43:37.199Z,6.30
2023-01-10T15:46:06.699Z,6.30
2023-01-10T15:48:35.767Z,6.20
2023-01-10T15:51:12.326Z,6.70
2023-01-10T15:54:03.394Z,6.10
2023-01-10T15:56:35.829Z,6.20
2023-01-10T15:59:05.043Z,6.10
2023-01-10T16:01:35.263Z,6.70
2023-01-10T16:04:05.390Z,6.30
2023-01-10T16:06:36.466Z,6.10
2023-01-10T16:09:08.905Z,6.50
2023-01-10T16:11:58.348Z,6.10
2023-01-10T16:14:26.273Z,6.50
2023-01-10T16:16:54.161Z,6.00
2023-01-10T16:19:22.070Z,6.10
2023-01-10T16:21:57.686Z,6.50
2023-01-10T16:24:29.654Z,6.10
2023-01-10T16:27:00.422Z,6.00
2023-01-10T16:29:28.350Z,6.10
2023-01-10T16:31:56.584Z,5.90
2023-01-10T16:34:25.828Z,6.10
2023-01-10T16:36:53.985Z,6.10
2023-01-10T16:39:24.197Z,6.10
2023-01-10T16:42:08.022Z,7.00
2023-01-10T16:44:36.460Z,6.40
2023-01-10T16:47:06.908Z,6.60
2023-01-10T16:49:35.472Z,6.50
2023-01-10T16:52:03.589Z,6.10
2023-01-10T16:54:32.592Z,6.50
2023-01-10T16:57:01.825Z,6.10
2023-01-10T16:59:29.691Z,6.10
2023-01-10T17:01:59.342Z,6.10
2023-01-10T17:04:30.584Z,6.10
2023-01-10T17:06:59.165Z,6.50
2023-01-10T17:09:29.147Z,6.90
2023-01-10T17:12:02.192Z,6.60
2023-01-10T17:14:33.393Z,6.50
2023-01-10T17:17:03.073Z,6.20
2023-01-10T17:19:31.261Z,6.60
2023-01-10T17:22:00.157Z,7.30
2023-01-10T17:24:29.628Z,6.10
2023-01-10T17:26:57.689Z,5.70
2023-01-10T17:29:25.645Z,6.60
2023-01-10T17:31:55.042Z,6.10
2023-01-10T17:34:22.969Z,6.20
2023-01-10T17:36:51.089Z,6.30
2023-01-10T17:39:18.981Z,6.10
2023-01-10T17:41:46.908Z,6.00
2023-01-10T17:44:15.008Z,6.10
2023-01-10T17:46:43.032Z,6.10
2023-01-10T17:49:13.460Z,6.10
2023-01-10T17:51:41.462Z,6.10
2023-01-10T17:54:09.353Z,6.70
2023-01-10T17:56:37.189Z,6.10
2023-01-10T17:59:05.057Z,6.70
2023-01-10T18:01:33.123Z,6.00
2023-01-10T18:04:01.040Z,6.40
2023-01-10T18:06:30.292Z,6.10
2023-01-10T18:08:58.157Z,6.70
2023-01-10T18:11:26.038Z,6.30
2023-01-10T18:13:54.052Z,6.10
2023-01-10T18:16:22.106Z,7.00
2023-01-10T18:18:50.085Z,6.50
2023-01-10T18:21:19.763Z,7.10
2023-01-10T18:23:49.888Z,6.10
2023-01-10T18:26:17.873Z,6.40
2023-01-10T18:28:46.262Z,6.50
2023-01-10T18:31:16.937Z,6.30
2023-01-10T18:33:45.035Z,6.50
2023-01-10T18:36:15.605Z,6.50
2023-01-10T18:38:44.455Z,6.90
2023-01-10T18:41:13.855Z,6.80
2023-01-10T18:43:41.837Z,6.30
2023-01-10T18:46:13.793Z,6.40
2023-01-10T18:48:42.001Z,6.30
2023-01-10T18:51:12.367Z,6.70
2023-01-10T18:53:40.587Z,6.10
2023-01-10T18:56:09.353Z,6.20
2023-01-10T18:58:40.280Z,6.00
2023-01-10T19:01:09.583Z,6.30
2023-01-10T19:03:37.852Z,6.10
2023-01-10T19:06:07.897Z,6.90
2023-01-10T19:08:36.401Z,6.00
2023-01-10T19:11:13.296Z,6.00
2023-01-10T19:13:44.091Z,6.40
2023-01-10T19:16:13.964Z,6.00
2023-01-10T19:18:42.856Z,5.60
2023-01-10T19:21:15.165Z,6.20
2023-01-10T19:23:43.721Z,6.70
2023-01-10T19:26:11.857Z,6.70
2023-01-10T19:28:39.801Z,6.30
2023-01-10T19:31:09.165Z,6.00
2023-01-10T19:33:38.314Z,6.50
2023-01-10T19:36:07.368Z,5.60
2023-01-10T19:38:35.684Z,6.00
2023-01-10T19:41:04.146Z,6.20
2023-01-10T19:43:33.725Z,7.10
2023-01-10T19:46:01.847Z,6.50
2023-01-10T19:48:31.108Z,6.00
2023-01-10T19:51:05.923Z,6.00
2023-01-10T19:53:35.529Z,5.80
2023-01-10T19:56:05.368Z,5.70
2023-01-10T19:58:33.427Z,5.80
2023-01-10T20:01:08.687Z,6.30
2023-01-10T20:03:40.851Z,6.00
2023-01-10T20:06:09.821Z,6.40
2023-01-10T20:08:37.945Z,5.60
2023-01-10T20:11:06.776Z,5.60
2023-01-10T20:13:37.021Z,5.60
2023-01-10T20:16:05.255Z,5.50
2023-01-10T20:18:33.432Z,6.30
2023-01-10T20:21:06.142Z,5.50
2023-01-10T20:23:34.249Z,5.80
2023-01-10T20:26:06.108Z,5.20
2023-01-10T20:28:34.799Z,6.10
2023-01-10T20:31:02.979Z,5.50
2023-01-10T20:33:33.554Z,5.80
2023-01-10T20:36:06.015Z,5.40
2023-01-10T20:38:35.615Z,5.30
2023-01-10T20:41:05.019Z,5.00
2023-01-10T20:43:33.189Z,5.80
2023-01-10T20:46:06.177Z,6.50
2023-01-10T20:48:34.454Z,5.30
2023-01-10T20:51:04.052Z,5.10
2023-01-10T20:53:32.755Z,6.30
2023-01-10T20:56:03.886Z,6.20
2023-01-10T20:58:32.860Z,6.20
2023-01-10T21:01:00.762Z,6.10
2023-01-10T21:03:28.822Z,6.00
2023-01-10T21:05:58.447Z,6.20
2023-01-10T21:08:30.184Z,6.20
2023-01-10T21:10:58.963Z,5.60
2023-01-10T21:13:27.432Z,6.20
2023-01-10T21:15:57.431Z,6.70
2023-01-10T21:18:31.053Z,6.90
2023-01-10T21:20:59.925Z,6.70
2023-01-10T21:23:29.806Z,5.70
2023-01-10T21:26:03.515Z,5.70
2023-01-10T21:28:34.612Z,6.20
2023-01-10T21:31:02.593Z,6.50
2023-01-10T21:33:30.513Z,6.50
2023-01-10T21:35:59.205Z,5.70
2023-01-10T21:38:29.509Z,6.00
2023-01-10T21:41:04.985Z,6.30
2023-01-10T21:43:33.422Z,6.20
2023-01-10T21:46:02.057Z,6.50
2023-01-10T21:48:30.345Z,6.60
2023-01-10T21:50:58.796Z,6.80
2023-01-10T21:53:28.245Z,5.80
2023-01-10T21:56:00.064Z,5.80
2023-01-10T21:58:28.076Z,5.80
2023-01-10T22:00:58.777Z,6.70
2023-01-10T22:03:26.876Z,5.80
2023-01-10T22:05:55.161Z,5.80
2023-01-10T22:08:23.199Z,6.10
2023-01-10T22:10:51.126Z,6.20
2023-01-10T22:13:20.418Z,8.40
2023-01-10T22:15:49.256Z,5.80
2023-01-10T22:18:17.173Z,6.40
2023-01-10T22:20:45.855Z,6.30
2023-01-10T22:23:13.747Z,6.00
2023-01-10T22:25:41.639Z,7.10
2023-01-10T22:28:09.585Z,6.50
2023-01-10T22:30:38.820Z,6.60
2023-01-10T22:33:06.704Z,5.70
2023-01-10T22:35:35.159Z,6.20
2023-01-10T22:38:03.065Z,5.90
2023-01-10T22:40:30.933Z,7.30
2023-01-10T22:42:58.830Z,6.90
2023-01-10T22:45:26.803Z,5.90
2023-01-10T22:47:56.055Z,6.00
2023-01-10T22:50:24.485Z,5.80
2023-01-10T22:52:52.476Z,6.50
2023-01-10T22:55:20.412Z,5.30
2023-01-10T22:57:48.426Z,6.10
2023-01-10T23:00:17.035Z,5.70
2023-01-10T23:02:44.990Z,5.90
2023-01-10T23:05:14.270Z,6.60
2023-01-10T23:07:42.144Z,6.20
2023-01-10T23:10:28.441Z,6.70
2023-01-10T23:12:57.729Z,6.00
2023-01-10T23:15:25.785Z,6.00
2023-01-10T23:17:53.715Z,6.40
2023-01-10T23:20:23.003Z,6.50
2023-01-10T23:22:50.905Z,6.40
2023-01-10T23:25:18.894Z,6.40
2023-01-10T23:27:46.810Z,6.10
2023-01-10T23:30:15.063Z,6.80
2023-01-10T23:32:43.122Z,6.20
2023-01-10T23:35:11.443Z,6.30
2023-01-10T23:37:40.674Z,7.10
2023-01-10T23:40:09.965Z,6.00
2023-01-10T23:42:37.882Z,6.40
2023-01-10T23:45:06.920Z,6.60
2023-01-10T23:47:34.816Z,6.40
2023-01-10T23:50:02.726Z,6.50
2023-01-10T23:52:30.608Z,6.50
2023-01-10T23:54:59.879Z,6.80
2023-01-10T23:57:27.761Z,6.50
2023-01-10T23:59:55.648Z,7.80
